KVEL/VEL METAR and TAF weather

Enter ICAO airport designator
Station Type Date Time Source
KVEL METAR 2024/04/17 17:53 UTC NOAA

KVEL 171753Z AUTO 22016G29KT 10SM OVC090 17/M01 A2994 RMK AO2 PK WND 25032/1705 SLP097 T01721011 10189 20078 58009


Station Type Date Time Source
KVEL Decoded METAR 2024/04/17 17:53 UTC NOAA

VERNAL AIRPORT, UT, United States (KVEL) 40-26N 109-30W 1604M
Apr 17, 2024 - 01:53 PM EDT / 2024.04.17 1753 UTC
Wind: from the SW (220 degrees) at 18 MPH (16 KT) gusting to 33 MPH (29 KT):0
Visibility: 10 mile(s):0
Sky conditions: overcast
Temperature: 63.0 F (17.2 C)
Dew Point: 30.0 F (-1.1 C)
Relative Humidity: 28%
Pressure (altimeter): 29.94 in. Hg (1013 hPa)
Pressure tendency: 0.03 inches (0.9 hPa) lower than three hours ago
ob: KVEL 171753Z AUTO 22016G29KT 10SM OVC090 17/M01 A2994 RMK AO2 PK WND 25032/1705 SLP097 T01721011 10189 20078 58009
cycle: 18

Station Type Date Time Source
KVEL TAF 2024/04/17 18:36 UTC NOAA